sensor_id;sensor_type;location;lat;lon;timestamp;P1;durP1;ratioP1;P2;durP2;ratioP2
71288;SDS011;59068;52.502;9.860;2023-05-07T00:02:12;16.30;;;14.43;;
71288;SDS011;59068;52.502;9.860;2023-05-07T00:04:38;15.77;;;14.07;;
71288;SDS011;59068;52.502;9.860;2023-05-07T00:07:03;16.27;;;14.60;;
71288;SDS011;59068;52.502;9.860;2023-05-07T00:09:30;15.97;;;14.37;;
71288;SDS011;59068;52.502;9.860;2023-05-07T00:11:56;17.23;;;14.83;;
71288;SDS011;59068;52.502;9.860;2023-05-07T00:14:22;16.40;;;14.37;;
71288;SDS011;59068;52.502;9.860;2023-05-07T00:16:47;16.10;;;14.40;;
71288;SDS011;59068;52.502;9.860;2023-05-07T00:19:14;16.33;;;14.53;;
71288;SDS011;59068;52.502;9.860;2023-05-07T00:21:39;16.30;;;14.33;;
71288;SDS011;59068;52.502;9.860;2023-05-07T00:24:05;16.47;;;14.03;;
71288;SDS011;59068;52.502;9.860;2023-05-07T00:26:30;16.10;;;14.60;;
71288;SDS011;59068;52.502;9.860;2023-05-07T00:28:56;15.77;;;14.10;;
71288;SDS011;59068;52.502;9.860;2023-05-07T00:31:21;16.57;;;14.40;;
71288;SDS011;59068;52.502;9.860;2023-05-07T00:33:48;16.80;;;15.00;;
71288;SDS011;59068;52.502;9.860;2023-05-07T00:36:13;15.37;;;13.60;;
71288;SDS011;59068;52.502;9.860;2023-05-07T00:38:40;15.53;;;13.97;;
71288;SDS011;59068;52.502;9.860;2023-05-07T00:41:07;16.70;;;14.97;;
71288;SDS011;59068;52.502;9.860;2023-05-07T00:43:34;15.80;;;13.97;;
71288;SDS011;59068;52.502;9.860;2023-05-07T00:46:00;17.37;;;14.30;;
71288;SDS011;59068;52.502;9.860;2023-05-07T00:48:26;16.63;;;14.43;;
71288;SDS011;59068;52.502;9.860;2023-05-07T00:50:54;17.93;;;15.97;;
71288;SDS011;59068;52.502;9.860;2023-05-07T00:53:20;16.80;;;14.93;;
71288;SDS011;59068;52.502;9.860;2023-05-07T00:55:48;18.73;;;15.97;;
71288;SDS011;59068;52.502;9.860;2023-05-07T00:58:15;16.23;;;14.43;;
71288;SDS011;59068;52.502;9.860;2023-05-07T01:00:42;17.30;;;15.50;;
71288;SDS011;59068;52.502;9.860;2023-05-07T01:03:07;16.60;;;14.77;;
71288;SDS011;59068;52.502;9.860;2023-05-07T01:05:34;18.13;;;15.50;;
71288;SDS011;59068;52.502;9.860;2023-05-07T01:08:01;17.93;;;15.67;;
71288;SDS011;59068;52.502;9.860;2023-05-07T01:10:29;17.60;;;15.70;;
71288;SDS011;59068;52.502;9.860;2023-05-07T01:12:55;18.03;;;15.87;;
71288;SDS011;59068;52.502;9.860;2023-05-07T01:15:23;16.70;;;14.90;;
71288;SDS011;59068;52.502;9.860;2023-05-07T01:17:49;16.53;;;14.83;;
71288;SDS011;59068;52.502;9.860;2023-05-07T01:20:17;16.77;;;14.17;;
71288;SDS011;59068;52.502;9.860;2023-05-07T01:22:44;16.17;;;14.40;;
71288;SDS011;59068;52.502;9.860;2023-05-07T01:25:11;17.17;;;14.73;;
71288;SDS011;59068;52.502;9.860;2023-05-07T01:27:39;15.90;;;14.10;;
71288;SDS011;59068;52.502;9.860;2023-05-07T01:30:06;16.23;;;13.93;;
71288;SDS011;59068;52.502;9.860;2023-05-07T01:32:35;16.10;;;13.97;;
71288;SDS011;59068;52.502;9.860;2023-05-07T01:35:02;16.63;;;14.03;;
71288;SDS011;59068;52.502;9.860;2023-05-07T01:37:34;16.97;;;14.93;;
71288;SDS011;59068;52.502;9.860;2023-05-07T01:40:00;16.63;;;14.87;;
71288;SDS011;59068;52.502;9.860;2023-05-07T01:42:28;17.17;;;15.30;;
71288;SDS011;59068;52.502;9.860;2023-05-07T01:44:54;17.37;;;14.87;;
71288;SDS011;59068;52.502;9.860;2023-05-07T01:47:20;17.90;;;15.90;;
71288;SDS011;59068;52.502;9.860;2023-05-07T01:49:47;18.53;;;16.10;;
71288;SDS011;59068;52.502;9.860;2023-05-07T01:52:14;19.00;;;16.07;;
71288;SDS011;59068;52.502;9.860;2023-05-07T01:54:40;20.03;;;16.97;;
71288;SDS011;59068;52.502;9.860;2023-05-07T01:57:07;17.73;;;15.53;;
71288;SDS011;59068;52.502;9.860;2023-05-07T01:59:34;19.53;;;16.90;;
71288;SDS011;59068;52.502;9.860;2023-05-07T02:02:00;20.27;;;15.93;;
71288;SDS011;59068;52.502;9.860;2023-05-07T02:04:27;18.60;;;15.83;;
71288;SDS011;59068;52.502;9.860;2023-05-07T02:06:53;20.10;;;16.43;;
71288;SDS011;59068;52.502;9.860;2023-05-07T02:09:20;20.57;;;16.90;;
71288;SDS011;59068;52.502;9.860;2023-05-07T02:11:47;20.13;;;16.30;;
71288;SDS011;59068;52.502;9.860;2023-05-07T02:14:14;18.47;;;15.90;;
71288;SDS011;59068;52.502;9.860;2023-05-07T02:16:40;16.97;;;14.50;;
71288;SDS011;59068;52.502;9.860;2023-05-07T02:19:06;16.87;;;15.00;;
71288;SDS011;59068;52.502;9.860;2023-05-07T02:21:32;16.03;;;14.33;;
71288;SDS011;59068;52.502;9.860;2023-05-07T02:23:59;17.57;;;15.13;;
71288;SDS011;59068;52.502;9.860;2023-05-07T02:26:25;15.70;;;14.03;;
71288;SDS011;59068;52.502;9.860;2023-05-07T02:28:52;15.37;;;13.77;;
71288;SDS011;59068;52.502;9.860;2023-05-07T02:31:18;17.13;;;14.73;;
71288;SDS011;59068;52.502;9.860;2023-05-07T02:33:47;14.87;;;13.23;;
71288;SDS011;59068;52.502;9.860;2023-05-07T02:36:14;14.33;;;12.83;;
71288;SDS011;59068;52.502;9.860;2023-05-07T02:38:40;15.33;;;13.20;;
71288;SDS011;59068;52.502;9.860;2023-05-07T02:41:06;14.80;;;13.30;;
71288;SDS011;59068;52.502;9.860;2023-05-07T02:43:33;13.47;;;12.07;;
71288;SDS011;59068;52.502;9.860;2023-05-07T02:46:05;13.70;;;11.80;;
71288;SDS011;59068;52.502;9.860;2023-05-07T02:48:33;12.83;;;11.37;;
71288;SDS011;59068;52.502;9.860;2023-05-07T02:50:59;12.27;;;10.97;;
71288;SDS011;59068;52.502;9.860;2023-05-07T02:53:26;12.67;;;11.37;;
71288;SDS011;59068;52.502;9.860;2023-05-07T02:55:53;13.10;;;11.67;;
71288;SDS011;59068;52.502;9.860;2023-05-07T02:58:20;12.60;;;11.27;;
71288;SDS011;59068;52.502;9.860;2023-05-07T03:00:47;14.33;;;11.47;;
71288;SDS011;59068;52.502;9.860;2023-05-07T03:03:12;12.00;;;10.30;;
71288;SDS011;59068;52.502;9.860;2023-05-07T03:05:39;11.53;;;10.33;;
71288;SDS011;59068;52.502;9.860;2023-05-07T03:08:07;12.13;;;10.40;;
71288;SDS011;59068;52.502;9.860;2023-05-07T03:10:35;12.00;;;10.73;;
71288;SDS011;59068;52.502;9.860;2023-05-07T03:13:01;12.03;;;10.40;;
71288;SDS011;59068;52.502;9.860;2023-05-07T03:15:26;11.90;;;10.73;;
71288;SDS011;59068;52.502;9.860;2023-05-07T03:17:53;11.60;;;10.17;;
71288;SDS011;59068;52.502;9.860;2023-05-07T03:20:19;11.90;;;10.70;;
71288;SDS011;59068;52.502;9.860;2023-05-07T03:22:46;11.07;;;9.97;;
71288;SDS011;59068;52.502;9.860;2023-05-07T03:25:12;10.80;;;9.30;;
71288;SDS011;59068;52.502;9.860;2023-05-07T03:27:38;11.00;;;9.90;;
71288;SDS011;59068;52.502;9.860;2023-05-07T03:30:03;10.60;;;9.50;;
71288;SDS011;59068;52.502;9.860;2023-05-07T03:32:30;10.30;;;9.20;;
71288;SDS011;59068;52.502;9.860;2023-05-07T03:34:56;12.00;;;10.07;;
71288;SDS011;59068;52.502;9.860;2023-05-07T03:37:22;10.27;;;9.27;;
71288;SDS011;59068;52.502;9.860;2023-05-07T03:39:49;10.00;;;9.00;;
71288;SDS011;59068;52.502;9.860;2023-05-07T03:42:16;11.20;;;9.57;;
71288;SDS011;59068;52.502;9.860;2023-05-07T03:44:43;10.70;;;9.57;;
71288;SDS011;59068;52.502;9.860;2023-05-07T03:47:08;11.00;;;9.87;;
71288;SDS011;59068;52.502;9.860;2023-05-07T03:49:36;11.27;;;10.20;;
71288;SDS011;59068;52.502;9.860;2023-05-07T03:52:02;10.40;;;9.27;;
71288;SDS011;59068;52.502;9.860;2023-05-07T03:54:29;10.00;;;9.00;;
71288;SDS011;59068;52.502;9.860;2023-05-07T03:56:55;10.13;;;9.13;;
71288;SDS011;59068;52.502;9.860;2023-05-07T03:59:21;9.37;;;8.43;;
71288;SDS011;59068;52.502;9.860;2023-05-07T04:01:48;11.17;;;9.53;;
71288;SDS011;59068;52.502;9.860;2023-05-07T04:04:14;9.77;;;8.77;;
71288;SDS011;59068;52.502;9.860;2023-05-07T04:06:41;9.67;;;8.67;;
71288;SDS011;59068;52.502;9.860;2023-05-07T04:09:08;10.10;;;9.07;;
71288;SDS011;59068;52.502;9.860;2023-05-07T04:11:34;9.83;;;8.90;;
71288;SDS011;59068;52.502;9.860;2023-05-07T04:14:01;10.17;;;9.20;;
71288;SDS011;59068;52.502;9.860;2023-05-07T04:16:29;9.53;;;8.53;;
71288;SDS011;59068;52.502;9.860;2023-05-07T04:18:54;10.53;;;9.43;;
71288;SDS011;59068;52.502;9.860;2023-05-07T04:21:20;10.63;;;9.57;;
71288;SDS011;59068;52.502;9.860;2023-05-07T04:23:47;9.57;;;8.63;;
71288;SDS011;59068;52.502;9.860;2023-05-07T04:26:14;9.90;;;8.60;;
71288;SDS011;59068;52.502;9.860;2023-05-07T04:28:41;10.03;;;9.00;;
71288;SDS011;59068;52.502;9.860;2023-05-07T04:31:07;11.90;;;10.00;;
71288;SDS011;59068;52.502;9.860;2023-05-07T04:33:34;10.07;;;9.00;;
71288;SDS011;59068;52.502;9.860;2023-05-07T04:36:04;10.47;;;9.40;;
71288;SDS011;59068;52.502;9.860;2023-05-07T04:38:30;10.57;;;9.50;;
71288;SDS011;59068;52.502;9.860;2023-05-07T04:40:58;10.00;;;9.07;;
71288;SDS011;59068;52.502;9.860;2023-05-07T04:43:28;10.43;;;9.37;;
71288;SDS011;59068;52.502;9.860;2023-05-07T04:45:53;10.07;;;9.03;;
71288;SDS011;59068;52.502;9.860;2023-05-07T04:48:20;11.07;;;9.87;;
71288;SDS011;59068;52.502;9.860;2023-05-07T04:50:49;11.23;;;10.07;;
71288;SDS011;59068;52.502;9.860;2023-05-07T04:53:16;10.23;;;9.13;;
71288;SDS011;59068;52.502;9.860;2023-05-07T04:55:42;10.57;;;9.57;;
71288;SDS011;59068;52.502;9.860;2023-05-07T04:58:08;10.00;;;9.00;;
71288;SDS011;59068;52.502;9.860;2023-05-07T05:00:34;10.40;;;9.30;;
71288;SDS011;59068;52.502;9.860;2023-05-07T05:03:00;10.63;;;9.63;;
71288;SDS011;59068;52.502;9.860;2023-05-07T05:05:27;10.60;;;9.40;;
71288;SDS011;59068;52.502;9.860;2023-05-07T05:07:52;10.73;;;9.63;;
71288;SDS011;59068;52.502;9.860;2023-05-07T05:10:19;10.93;;;9.87;;
71288;SDS011;59068;52.502;9.860;2023-05-07T05:12:44;11.50;;;10.30;;
71288;SDS011;59068;52.502;9.860;2023-05-07T05:15:11;10.70;;;9.73;;
71288;SDS011;59068;52.502;9.860;2023-05-07T05:17:39;10.87;;;9.77;;
71288;SDS011;59068;52.502;9.860;2023-05-07T05:20:05;10.77;;;9.73;;
71288;SDS011;59068;52.502;9.860;2023-05-07T05:22:32;10.97;;;9.90;;
71288;SDS011;59068;52.502;9.860;2023-05-07T05:24:59;11.83;;;10.80;;
71288;SDS011;59068;52.502;9.860;2023-05-07T05:27:26;11.17;;;10.07;;
71288;SDS011;59068;52.502;9.860;2023-05-07T05:29:53;10.73;;;9.63;;
71288;SDS011;59068;52.502;9.860;2023-05-07T05:32:19;11.20;;;10.07;;
71288;SDS011;59068;52.502;9.860;2023-05-07T05:34:46;11.07;;;10.00;;
71288;SDS011;59068;52.502;9.860;2023-05-07T05:37:11;12.03;;;10.93;;
71288;SDS011;59068;52.502;9.860;2023-05-07T05:39:38;10.97;;;9.97;;
71288;SDS011;59068;52.502;9.860;2023-05-07T05:42:03;9.77;;;8.87;;
71288;SDS011;59068;52.502;9.860;2023-05-07T05:44:30;11.50;;;10.43;;
71288;SDS011;59068;52.502;9.860;2023-05-07T05:46:56;11.50;;;10.40;;
71288;SDS011;59068;52.502;9.860;2023-05-07T05:49:24;10.53;;;9.53;;
71288;SDS011;59068;52.502;9.860;2023-05-07T05:51:51;10.00;;;9.10;;
71288;SDS011;59068;52.502;9.860;2023-05-07T05:54:16;10.37;;;9.37;;
71288;SDS011;59068;52.502;9.860;2023-05-07T05:56:44;9.57;;;8.67;;
71288;SDS011;59068;52.502;9.860;2023-05-07T05:59:10;9.40;;;8.50;;
71288;SDS011;59068;52.502;9.860;2023-05-07T06:01:37;9.67;;;8.87;;
71288;SDS011;59068;52.502;9.860;2023-05-07T06:04:03;9.17;;;8.33;;
71288;SDS011;59068;52.502;9.860;2023-05-07T06:06:28;9.67;;;8.70;;
71288;SDS011;59068;52.502;9.860;2023-05-07T06:08:54;9.37;;;8.47;;
71288;SDS011;59068;52.502;9.860;2023-05-07T06:11:20;9.10;;;8.10;;
71288;SDS011;59068;52.502;9.860;2023-05-07T06:13:45;8.97;;;8.17;;
71288;SDS011;59068;52.502;9.860;2023-05-07T06:16:12;9.27;;;8.43;;
71288;SDS011;59068;52.502;9.860;2023-05-07T06:18:39;9.27;;;8.47;;
71288;SDS011;59068;52.502;9.860;2023-05-07T06:21:05;9.80;;;8.90;;
71288;SDS011;59068;52.502;9.860;2023-05-07T06:23:32;9.40;;;8.50;;
71288;SDS011;59068;52.502;9.860;2023-05-07T06:25:57;9.30;;;8.40;;
71288;SDS011;59068;52.502;9.860;2023-05-07T06:28:24;9.70;;;8.33;;
71288;SDS011;59068;52.502;9.860;2023-05-07T06:30:49;10.00;;;9.13;;
71288;SDS011;59068;52.502;9.860;2023-05-07T06:33:16;9.17;;;8.30;;
71288;SDS011;59068;52.502;9.860;2023-05-07T06:35:43;8.70;;;7.90;;
71288;SDS011;59068;52.502;9.860;2023-05-07T06:38:08;8.83;;;7.93;;
71288;SDS011;59068;52.502;9.860;2023-05-07T06:40:35;9.00;;;8.20;;
71288;SDS011;59068;52.502;9.860;2023-05-07T06:43:00;9.23;;;8.33;;
71288;SDS011;59068;52.502;9.860;2023-05-07T06:45:26;9.33;;;8.53;;
71288;SDS011;59068;52.502;9.860;2023-05-07T06:47:51;9.67;;;8.83;;
71288;SDS011;59068;52.502;9.860;2023-05-07T06:50:19;8.83;;;8.13;;
71288;SDS011;59068;52.502;9.860;2023-05-07T06:52:45;9.57;;;8.77;;
71288;SDS011;59068;52.502;9.860;2023-05-07T06:55:12;9.50;;;8.50;;
71288;SDS011;59068;52.502;9.860;2023-05-07T06:57:38;9.00;;;8.30;;
71288;SDS011;59068;52.502;9.860;2023-05-07T07:00:07;9.23;;;8.43;;
71288;SDS011;59068;52.502;9.860;2023-05-07T07:02:36;9.63;;;8.80;;
71288;SDS011;59068;52.502;9.860;2023-05-07T07:05:03;9.63;;;8.63;;
71288;SDS011;59068;52.502;9.860;2023-05-07T07:07:30;9.70;;;8.90;;
71288;SDS011;59068;52.502;9.860;2023-05-07T07:09:57;9.63;;;8.83;;
71288;SDS011;59068;52.502;9.860;2023-05-07T07:12:24;9.90;;;9.10;;
71288;SDS011;59068;52.502;9.860;2023-05-07T07:14:52;10.33;;;9.40;;
71288;SDS011;59068;52.502;9.860;2023-05-07T07:17:17;10.80;;;9.90;;
71288;SDS011;59068;52.502;9.860;2023-05-07T07:19:44;11.40;;;10.33;;
71288;SDS011;59068;52.502;9.860;2023-05-07T07:22:10;11.03;;;10.03;;
71288;SDS011;59068;52.502;9.860;2023-05-07T07:24:37;10.90;;;9.93;;
71288;SDS011;59068;52.502;9.860;2023-05-07T07:27:03;11.70;;;10.60;;
71288;SDS011;59068;52.502;9.860;2023-05-07T07:29:29;10.70;;;9.67;;
71288;SDS011;59068;52.502;9.860;2023-05-07T07:31:57;11.17;;;10.17;;
71288;SDS011;59068;52.502;9.860;2023-05-07T07:34:23;11.57;;;10.57;;
71288;SDS011;59068;52.502;9.860;2023-05-07T07:36:50;10.73;;;9.83;;
71288;SDS011;59068;52.502;9.860;2023-05-07T07:39:16;10.80;;;9.83;;
71288;SDS011;59068;52.502;9.860;2023-05-07T07:41:43;10.87;;;9.97;;
71288;SDS011;59068;52.502;9.860;2023-05-07T07:44:09;10.63;;;9.63;;
71288;SDS011;59068;52.502;9.860;2023-05-07T07:46:39;11.50;;;10.50;;
71288;SDS011;59068;52.502;9.860;2023-05-07T07:49:04;11.47;;;10.47;;
71288;SDS011;59068;52.502;9.860;2023-05-07T07:51:30;9.87;;;8.97;;
71288;SDS011;59068;52.502;9.860;2023-05-07T07:53:57;10.80;;;9.73;;
71288;SDS011;59068;52.502;9.860;2023-05-07T07:56:24;9.90;;;9.10;;
71288;SDS011;59068;52.502;9.860;2023-05-07T07:58:51;10.37;;;9.43;;
71288;SDS011;59068;52.502;9.860;2023-05-07T08:01:17;9.83;;;9.00;;
71288;SDS011;59068;52.502;9.860;2023-05-07T08:03:44;9.33;;;8.47;;
71288;SDS011;59068;52.502;9.860;2023-05-07T08:06:10;9.73;;;8.87;;
71288;SDS011;59068;52.502;9.860;2023-05-07T08:08:36;10.10;;;9.10;;
71288;SDS011;59068;52.502;9.860;2023-05-07T08:11:02;7.53;;;6.83;;
71288;SDS011;59068;52.502;9.860;2023-05-07T08:13:30;8.37;;;7.57;;
71288;SDS011;59068;52.502;9.860;2023-05-07T08:15:56;8.57;;;7.77;;
71288;SDS011;59068;52.502;9.860;2023-05-07T08:18:23;7.73;;;7.13;;
71288;SDS011;59068;52.502;9.860;2023-05-07T08:20:50;8.53;;;7.83;;
71288;SDS011;59068;52.502;9.860;2023-05-07T08:23:16;8.30;;;7.60;;
71288;SDS011;59068;52.502;9.860;2023-05-07T08:25:42;8.77;;;7.97;;
71288;SDS011;59068;52.502;9.860;2023-05-07T08:28:09;7.87;;;7.17;;
71288;SDS011;59068;52.502;9.860;2023-05-07T08:30:35;7.80;;;7.20;;
71288;SDS011;59068;52.502;9.860;2023-05-07T08:33:01;8.43;;;7.83;;
71288;SDS011;59068;52.502;9.860;2023-05-07T08:35:28;8.17;;;7.47;;
71288;SDS011;59068;52.502;9.860;2023-05-07T08:37:57;7.80;;;7.10;;
71288;SDS011;59068;52.502;9.860;2023-05-07T08:40:26;8.40;;;7.70;;
71288;SDS011;59068;52.502;9.860;2023-05-07T08:42:53;7.90;;;7.10;;
71288;SDS011;59068;52.502;9.860;2023-05-07T08:45:20;7.30;;;6.70;;
71288;SDS011;59068;52.502;9.860;2023-05-07T08:47:47;7.40;;;6.80;;
71288;SDS011;59068;52.502;9.860;2023-05-07T08:50:17;7.93;;;7.23;;
71288;SDS011;59068;52.502;9.860;2023-05-07T08:52:44;7.67;;;7.03;;
71288;SDS011;59068;52.502;9.860;2023-05-07T08:55:11;7.80;;;7.17;;
71288;SDS011;59068;52.502;9.860;2023-05-07T08:57:38;7.33;;;6.73;;
71288;SDS011;59068;52.502;9.860;2023-05-07T09:00:04;6.80;;;6.20;;
71288;SDS011;59068;52.502;9.860;2023-05-07T09:02:37;7.60;;;7.00;;
71288;SDS011;59068;52.502;9.860;2023-05-07T09:05:02;8.20;;;7.57;;
71288;SDS011;59068;52.502;9.860;2023-05-07T09:07:28;7.50;;;6.90;;
71288;SDS011;59068;52.502;9.860;2023-05-07T09:09:56;7.70;;;7.00;;
71288;SDS011;59068;52.502;9.860;2023-05-07T09:12:25;7.50;;;6.80;;
71288;SDS011;59068;52.502;9.860;2023-05-07T09:14:53;7.67;;;6.93;;
71288;SDS011;59068;52.502;9.860;2023-05-07T09:17:19;7.30;;;6.70;;
71288;SDS011;59068;52.502;9.860;2023-05-07T09:19:44;7.47;;;6.87;;
71288;SDS011;59068;52.502;9.860;2023-05-07T09:22:12;7.73;;;6.97;;
71288;SDS011;59068;52.502;9.860;2023-05-07T09:24:37;8.07;;;7.37;;
71288;SDS011;59068;52.502;9.860;2023-05-07T09:27:03;7.27;;;6.67;;
71288;SDS011;59068;52.502;9.860;2023-05-07T09:29:30;7.53;;;6.83;;
71288;SDS011;59068;52.502;9.860;2023-05-07T09:32:01;7.93;;;7.23;;
71288;SDS011;59068;52.502;9.860;2023-05-07T09:34:29;7.17;;;6.57;;
71288;SDS011;59068;52.502;9.860;2023-05-07T09:36:55;7.00;;;6.40;;
71288;SDS011;59068;52.502;9.860;2023-05-07T09:39:23;7.27;;;6.67;;
71288;SDS011;59068;52.502;9.860;2023-05-07T09:41:50;7.93;;;6.90;;
71288;SDS011;59068;52.502;9.860;2023-05-07T09:44:18;7.37;;;6.77;;
71288;SDS011;59068;52.502;9.860;2023-05-07T09:46:45;6.90;;;6.40;;
71288;SDS011;59068;52.502;9.860;2023-05-07T09:49:13;6.87;;;6.27;;
71288;SDS011;59068;52.502;9.860;2023-05-07T09:51:46;7.37;;;6.67;;
71288;SDS011;59068;52.502;9.860;2023-05-07T09:54:15;7.67;;;7.07;;
71288;SDS011;59068;52.502;9.860;2023-05-07T09:56:42;7.43;;;6.70;;
71288;SDS011;59068;52.502;9.860;2023-05-07T09:59:15;7.60;;;7.00;;
71288;SDS011;59068;52.502;9.860;2023-05-07T10:01:41;7.80;;;7.20;;
71288;SDS011;59068;52.502;9.860;2023-05-07T10:04:09;8.33;;;7.67;;
71288;SDS011;59068;52.502;9.860;2023-05-07T10:06:37;8.47;;;7.73;;
71288;SDS011;59068;52.502;9.860;2023-05-07T10:09:04;8.70;;;8.00;;
71288;SDS011;59068;52.502;9.860;2023-05-07T10:11:35;8.80;;;8.10;;
71288;SDS011;59068;52.502;9.860;2023-05-07T10:14:03;9.07;;;8.37;;
71288;SDS011;59068;52.502;9.860;2023-05-07T10:16:32;9.47;;;8.77;;
71288;SDS011;59068;52.502;9.860;2023-05-07T10:19:19;9.20;;;8.50;;
71288;SDS011;59068;52.502;9.860;2023-05-07T10:21:51;9.50;;;8.80;;
71288;SDS011;59068;52.502;9.860;2023-05-07T10:24:32;9.27;;;8.57;;
71288;SDS011;59068;52.502;9.860;2023-05-07T10:27:00;10.23;;;9.20;;
71288;SDS011;59068;52.502;9.860;2023-05-07T10:32:39;14.07;;;12.73;;
71288;SDS011;59068;52.502;9.860;2023-05-07T10:35:16;9.50;;;8.70;;
71288;SDS011;59068;52.502;9.860;2023-05-07T10:37:46;8.63;;;7.93;;
71288;SDS011;59068;52.502;9.860;2023-05-07T10:40:12;8.60;;;7.90;;
71288;SDS011;59068;52.502;9.860;2023-05-07T10:42:37;8.10;;;7.50;;
71288;SDS011;59068;52.502;9.860;2023-05-07T10:45:14;8.40;;;7.70;;
71288;SDS011;59068;52.502;9.860;2023-05-07T10:50:46;8.23;;;7.60;;
71288;SDS011;59068;52.502;9.860;2023-05-07T10:59:09;8.00;;;7.30;;
71288;SDS011;59068;52.502;9.860;2023-05-07T11:01:50;7.57;;;6.97;;
71288;SDS011;59068;52.502;9.860;2023-05-07T11:04:21;7.77;;;7.07;;
71288;SDS011;59068;52.502;9.860;2023-05-07T11:15:05;7.10;;;6.60;;
71288;SDS011;59068;52.502;9.860;2023-05-07T11:17:32;7.50;;;6.90;;
71288;SDS011;59068;52.502;9.860;2023-05-07T11:20:01;6.97;;;6.47;;
71288;SDS011;59068;52.502;9.860;2023-05-07T11:25:04;6.87;;;6.30;;
71288;SDS011;59068;52.502;9.860;2023-05-07T11:27:32;7.10;;;6.37;;
71288;SDS011;59068;52.502;9.860;2023-05-07T11:29:59;6.30;;;5.90;;
71288;SDS011;59068;52.502;9.860;2023-05-07T11:32:27;5.87;;;5.47;;
71288;SDS011;59068;52.502;9.860;2023-05-07T11:34:54;5.80;;;5.40;;
71288;SDS011;59068;52.502;9.860;2023-05-07T11:37:22;6.27;;;5.83;;
71288;SDS011;59068;52.502;9.860;2023-05-07T11:39:50;5.97;;;5.47;;
71288;SDS011;59068;52.502;9.860;2023-05-07T11:42:29;6.20;;;5.70;;
71288;SDS011;59068;52.502;9.860;2023-05-07T11:44:56;6.43;;;5.93;;
71288;SDS011;59068;52.502;9.860;2023-05-07T11:47:23;6.17;;;5.77;;
71288;SDS011;59068;52.502;9.860;2023-05-07T11:49:51;7.60;;;7.00;;
71288;SDS011;59068;52.502;9.860;2023-05-07T11:52:19;6.50;;;6.10;;
71288;SDS011;59068;52.502;9.860;2023-05-07T11:54:56;7.50;;;6.90;;
71288;SDS011;59068;52.502;9.860;2023-05-07T11:57:25;6.97;;;6.37;;
71288;SDS011;59068;52.502;9.860;2023-05-07T11:59:59;6.27;;;5.77;;
71288;SDS011;59068;52.502;9.860;2023-05-07T12:02:27;6.47;;;5.97;;
71288;SDS011;59068;52.502;9.860;2023-05-07T12:04:53;6.40;;;5.90;;
71288;SDS011;59068;52.502;9.860;2023-05-07T12:07:20;5.80;;;5.40;;
71288;SDS011;59068;52.502;9.860;2023-05-07T12:09:46;5.43;;;5.03;;
71288;SDS011;59068;52.502;9.860;2023-05-07T12:12:12;5.80;;;5.30;;
71288;SDS011;59068;52.502;9.860;2023-05-07T12:14:44;5.47;;;4.97;;
71288;SDS011;59068;52.502;9.860;2023-05-07T12:17:12;5.10;;;4.70;;
71288;SDS011;59068;52.502;9.860;2023-05-07T12:19:39;5.13;;;4.73;;
71288;SDS011;59068;52.502;9.860;2023-05-07T12:22:08;4.93;;;4.63;;
71288;SDS011;59068;52.502;9.860;2023-05-07T12:27:23;4.93;;;4.63;;
71288;SDS011;59068;52.502;9.860;2023-05-07T12:29:49;4.70;;;4.40;;
71288;SDS011;59068;52.502;9.860;2023-05-07T12:32:20;4.87;;;4.47;;
71288;SDS011;59068;52.502;9.860;2023-05-07T12:34:46;5.20;;;4.80;;
71288;SDS011;59068;52.502;9.860;2023-05-07T12:37:14;4.33;;;3.90;;
71288;SDS011;59068;52.502;9.860;2023-05-07T12:42:39;4.73;;;4.37;;
71288;SDS011;59068;52.502;9.860;2023-05-07T12:45:13;4.20;;;3.90;;
71288;SDS011;59068;52.502;9.860;2023-05-07T12:47:45;4.90;;;4.50;;
71288;SDS011;59068;52.502;9.860;2023-05-07T12:50:12;5.13;;;4.73;;
71288;SDS011;59068;52.502;9.860;2023-05-07T12:52:40;5.10;;;4.60;;
71288;SDS011;59068;52.502;9.860;2023-05-07T12:55:12;5.20;;;4.80;;
71288;SDS011;59068;52.502;9.860;2023-05-07T12:57:42;4.67;;;4.37;;
71288;SDS011;59068;52.502;9.860;2023-05-07T13:00:12;5.30;;;4.80;;
71288;SDS011;59068;52.502;9.860;2023-05-07T13:02:40;5.27;;;4.77;;
71288;SDS011;59068;52.502;9.860;2023-05-07T13:05:13;4.70;;;4.40;;
71288;SDS011;59068;52.502;9.860;2023-05-07T13:07:40;4.87;;;4.50;;
71288;SDS011;59068;52.502;9.860;2023-05-07T13:10:07;5.03;;;4.63;;
71288;SDS011;59068;52.502;9.860;2023-05-07T13:12:34;5.47;;;5.07;;
71288;SDS011;59068;52.502;9.860;2023-05-07T13:14:59;5.43;;;4.93;;
71288;SDS011;59068;52.502;9.860;2023-05-07T13:17:26;6.00;;;5.40;;
71288;SDS011;59068;52.502;9.860;2023-05-07T13:19:53;5.37;;;4.97;;
71288;SDS011;59068;52.502;9.860;2023-05-07T13:22:19;6.13;;;5.63;;
71288;SDS011;59068;52.502;9.860;2023-05-07T13:24:46;5.50;;;5.10;;
71288;SDS011;59068;52.502;9.860;2023-05-07T13:27:12;5.97;;;5.57;;
71288;SDS011;59068;52.502;9.860;2023-05-07T13:29:38;5.87;;;5.37;;
71288;SDS011;59068;52.502;9.860;2023-05-07T13:32:04;5.93;;;5.43;;
71288;SDS011;59068;52.502;9.860;2023-05-07T13:34:31;6.03;;;5.43;;
71288;SDS011;59068;52.502;9.860;2023-05-07T13:36:56;6.40;;;6.00;;
71288;SDS011;59068;52.502;9.860;2023-05-07T13:39:22;6.57;;;6.07;;
71288;SDS011;59068;52.502;9.860;2023-05-07T13:41:49;6.80;;;6.30;;
71288;SDS011;59068;52.502;9.860;2023-05-07T13:44:16;6.77;;;6.10;;
71288;SDS011;59068;52.502;9.860;2023-05-07T13:46:42;6.90;;;6.23;;
71288;SDS011;59068;52.502;9.860;2023-05-07T13:49:08;5.83;;;5.37;;
71288;SDS011;59068;52.502;9.860;2023-05-07T13:51:37;5.47;;;5.07;;
71288;SDS011;59068;52.502;9.860;2023-05-07T13:54:03;6.00;;;5.50;;
71288;SDS011;59068;52.502;9.860;2023-05-07T13:56:32;6.30;;;5.80;;
71288;SDS011;59068;52.502;9.860;2023-05-07T13:58:58;5.87;;;5.33;;
71288;SDS011;59068;52.502;9.860;2023-05-07T14:01:24;5.77;;;5.37;;
71288;SDS011;59068;52.502;9.860;2023-05-07T14:03:50;5.43;;;5.00;;
71288;SDS011;59068;52.502;9.860;2023-05-07T14:06:16;5.50;;;5.00;;
71288;SDS011;59068;52.502;9.860;2023-05-07T14:08:44;5.63;;;5.13;;
71288;SDS011;59068;52.502;9.860;2023-05-07T14:11:10;4.87;;;4.57;;
71288;SDS011;59068;52.502;9.860;2023-05-07T14:13:36;5.57;;;5.07;;
71288;SDS011;59068;52.502;9.860;2023-05-07T14:16:03;5.60;;;5.20;;
71288;SDS011;59068;52.502;9.860;2023-05-07T14:18:31;5.93;;;5.33;;
71288;SDS011;59068;52.502;9.860;2023-05-07T14:20:58;5.57;;;5.17;;
71288;SDS011;59068;52.502;9.860;2023-05-07T14:23:24;5.93;;;5.43;;
71288;SDS011;59068;52.502;9.860;2023-05-07T14:25:52;4.83;;;4.53;;
71288;SDS011;59068;52.502;9.860;2023-05-07T14:28:18;4.70;;;4.33;;
71288;SDS011;59068;52.502;9.860;2023-05-07T14:30:44;4.93;;;4.53;;
71288;SDS011;59068;52.502;9.860;2023-05-07T14:33:10;4.70;;;4.30;;
71288;SDS011;59068;52.502;9.860;2023-05-07T14:35:35;5.50;;;5.00;;
71288;SDS011;59068;52.502;9.860;2023-05-07T14:38:00;4.87;;;4.47;;
71288;SDS011;59068;52.502;9.860;2023-05-07T14:40:27;4.60;;;4.30;;
71288;SDS011;59068;52.502;9.860;2023-05-07T14:42:53;4.67;;;4.27;;
71288;SDS011;59068;52.502;9.860;2023-05-07T14:45:20;4.53;;;4.13;;
71288;SDS011;59068;52.502;9.860;2023-05-07T14:47:46;4.30;;;4.00;;
71288;SDS011;59068;52.502;9.860;2023-05-07T14:50:11;4.20;;;3.90;;
71288;SDS011;59068;52.502;9.860;2023-05-07T14:52:36;4.63;;;4.23;;
71288;SDS011;59068;52.502;9.860;2023-05-07T14:55:03;4.47;;;4.07;;
71288;SDS011;59068;52.502;9.860;2023-05-07T14:57:31;4.60;;;4.30;;
71288;SDS011;59068;52.502;9.860;2023-05-07T15:00:00;4.37;;;3.97;;
71288;SDS011;59068;52.502;9.860;2023-05-07T15:02:28;4.33;;;3.70;;
71288;SDS011;59068;52.502;9.860;2023-05-07T15:04:53;4.17;;;3.70;;
71288;SDS011;59068;52.502;9.860;2023-05-07T15:07:21;4.80;;;4.33;;